Diemen, Netherlands
Current Conditions -  °F | °C
As of 2:55 AM on Tuesday 25 Nov 2014 (Local Time) from EHAM Reporting Station
Scattered Clouds Scattered Clouds  
Wind Chill: 39°   Ceiling: Unl
Heat Index: 39°   Visibility: 6mi
Dew Point: 37°   Wind: 2mph
Humidity: 93%   Direction: NA
Pressure: 30.3"   Gusts: NA
Location:  52.34°N, 4.96°E
Report Text: EHAM 250155Z VRB02KT 9999 SCT032 04/03 Q1026 TEMPO 4000 MIFG
Loading
Personal Weather Stations






























Interactive Weather Map New forecast layout! Learn more

10-Day Weather Forecast

Advertisements
Track Severe Weather on mobile